sensor_id;sensor_type;location;lat;lon;timestamp;pressure;altitude;pressure_sealevel;temperature;humidity
62462;BME280;48511;38.664;-9.202;2023-02-13T00:01:57;49964.91;;;-146.63;62.86
62462;BME280;48511;38.664;-9.202;2023-02-13T00:03:59;49947.13;;;-146.63;62.89
62462;BME280;48511;38.664;-9.202;2023-02-13T00:06:00;49970.81;;;-146.63;62.77
62462;BME280;48511;38.664;-9.202;2023-02-13T00:08:00;50000.44;;;-146.63;62.99
62462;BME280;48511;38.664;-9.202;2023-02-13T00:10:01;49935.28;;;-146.63;62.90
62462;BME280;48511;38.664;-9.202;2023-02-13T00:12:03;49939.25;;;-146.63;63.15
62462;BME280;48511;38.664;-9.202;2023-02-13T00:14:04;49958.97;;;-146.63;63.20
62462;BME280;48511;38.664;-9.202;2023-02-13T00:16:05;49933.31;;;-146.63;63.13
62462;BME280;48511;38.664;-9.202;2023-02-13T00:18:06;49957.00;;;-146.63;63.15
62462;BME280;48511;38.664;-9.202;2023-02-13T00:20:08;49927.41;;;-146.63;63.36
62462;BME280;48511;38.664;-9.202;2023-02-13T00:22:09;49947.13;;;-146.63;63.21
62462;BME280;48511;38.664;-9.202;2023-02-13T00:24:11;49945.16;;;-146.63;63.09
62462;BME280;48511;38.664;-9.202;2023-02-13T00:26:13;49964.91;;;-146.63;63.24
62462;BME280;48511;38.664;-9.202;2023-02-13T00:28:17;49980.69;;;-146.63;63.26
62462;BME280;48511;38.664;-9.202;2023-02-13T00:30:19;49917.53;;;-146.63;63.17
62462;BME280;48511;38.664;-9.202;2023-02-13T00:32:20;49913.59;;;-146.63;63.50
62462;BME280;48511;38.664;-9.202;2023-02-13T00:34:21;49957.00;;;-146.63;63.47
62462;BME280;48511;38.664;-9.202;2023-02-13T00:36:23;49972.78;;;-146.63;63.49
62462;BME280;48511;38.664;-9.202;2023-02-13T00:38:24;49923.44;;;-146.63;63.63
62462;BME280;48511;38.664;-9.202;2023-02-13T00:40:25;49996.47;;;-146.63;63.78
62462;BME280;48511;38.664;-9.202;2023-02-13T00:42:26;49968.84;;;-146.63;63.75
62462;BME280;48511;38.664;-9.202;2023-02-13T00:44:27;49960.94;;;-146.63;64.19
62462;BME280;48511;38.664;-9.202;2023-02-13T00:46:28;49988.59;;;-146.63;64.08
62462;BME280;48511;38.664;-9.202;2023-02-13T00:48:30;49921.47;;;-146.63;64.20
62462;BME280;48511;38.664;-9.202;2023-02-13T00:50:31;49953.06;;;-146.63;64.07
62462;BME280;48511;38.664;-9.202;2023-02-13T00:52:32;49974.75;;;-146.63;64.34
62462;BME280;48511;38.664;-9.202;2023-02-13T00:54:32;49980.69;;;-146.63;64.30
62462;BME280;48511;38.664;-9.202;2023-02-13T00:56:33;49972.78;;;-146.63;64.53
62462;BME280;48511;38.664;-9.202;2023-02-13T00:58:34;49957.00;;;-146.63;64.74
62462;BME280;48511;38.664;-9.202;2023-02-13T01:00:35;49962.91;;;-146.63;64.42
62462;BME280;48511;38.664;-9.202;2023-02-13T01:02:36;49986.59;;;-146.63;64.42
62462;BME280;48511;38.664;-9.202;2023-02-13T01:04:37;49953.06;;;-146.63;64.57
62462;BME280;48511;38.664;-9.202;2023-02-13T01:06:37;49960.94;;;-146.63;64.43
62462;BME280;48511;38.664;-9.202;2023-02-13T01:08:40;49923.44;;;-146.63;64.53
62462;BME280;48511;38.664;-9.202;2023-02-13T01:10:44;49964.91;;;-146.63;64.53
62462;BME280;48511;38.664;-9.202;2023-02-13T01:12:45;49943.19;;;-146.63;64.40
62462;BME280;48511;38.664;-9.202;2023-02-13T01:14:45;49980.69;;;-146.63;64.69
62462;BME280;48511;38.664;-9.202;2023-02-13T01:16:46;49925.41;;;-146.63;64.09
62462;BME280;48511;38.664;-9.202;2023-02-13T01:18:47;49921.47;;;-146.63;64.08
62462;BME280;48511;38.664;-9.202;2023-02-13T01:21:01;49941.22;;;-146.63;64.12
62462;BME280;48511;38.664;-9.202;2023-02-13T01:23:02;49953.06;;;-146.63;64.14
62462;BME280;48511;38.664;-9.202;2023-02-13T01:25:04;49964.91;;;-146.63;63.88
62462;BME280;48511;38.664;-9.202;2023-02-13T01:27:05;49958.97;;;-146.63;64.03
62462;BME280;48511;38.664;-9.202;2023-02-13T01:29:06;49933.31;;;-146.63;64.05
62462;BME280;48511;38.664;-9.202;2023-02-13T01:31:07;49986.59;;;-146.63;63.98
62462;BME280;48511;38.664;-9.202;2023-02-13T01:33:10;49980.69;;;-146.63;63.67
62462;BME280;48511;38.664;-9.202;2023-02-13T01:35:12;49953.06;;;-146.63;63.83
62462;BME280;48511;38.664;-9.202;2023-02-13T01:37:13;49968.84;;;-146.63;63.80
62462;BME280;48511;38.664;-9.202;2023-02-13T01:39:14;49980.69;;;-146.63;64.06
62462;BME280;48511;38.664;-9.202;2023-02-13T01:41:16;49951.09;;;-146.63;64.03
62462;BME280;48511;38.664;-9.202;2023-02-13T01:43:18;49958.97;;;-146.63;64.07
62462;BME280;48511;38.664;-9.202;2023-02-13T01:45:25;49970.81;;;-146.63;63.87
62462;BME280;48511;38.664;-9.202;2023-02-13T01:47:36;49984.63;;;-146.63;64.11
62462;BME280;48511;38.664;-9.202;2023-02-13T01:49:41;49929.38;;;-146.63;63.94
62462;BME280;48511;38.664;-9.202;2023-02-13T01:51:46;49970.81;;;-146.63;64.35
62462;BME280;48511;38.664;-9.202;2023-02-13T01:53:58;49945.16;;;-146.63;64.58
62462;BME280;48511;38.664;-9.202;2023-02-13T01:56:02;49933.31;;;-146.63;64.57
62462;BME280;48511;38.664;-9.202;2023-02-13T01:58:08;49970.81;;;-146.63;64.59
62462;BME280;48511;38.664;-9.202;2023-02-13T02:00:14;49976.75;;;-146.63;64.47
62462;BME280;48511;38.664;-9.202;2023-02-13T02:02:20;49937.25;;;-146.63;64.74
62462;BME280;48511;38.664;-9.202;2023-02-13T02:04:27;49968.84;;;-146.63;64.58
62462;BME280;48511;38.664;-9.202;2023-02-13T02:06:33;49921.47;;;-146.63;64.70
62462;BME280;48511;38.664;-9.202;2023-02-13T02:08:35;49935.28;;;-146.63;65.01
62462;BME280;48511;38.664;-9.202;2023-02-13T02:10:36;49917.53;;;-146.63;64.88
62462;BME280;48511;38.664;-9.202;2023-02-13T02:12:48;49984.63;;;-146.63;64.82
62462;BME280;48511;38.664;-9.202;2023-02-13T02:14:53;49960.94;;;-146.63;65.03
62462;BME280;48511;38.664;-9.202;2023-02-13T02:16:56;49941.22;;;-146.63;64.98
62462;BME280;48511;38.664;-9.202;2023-02-13T02:19:00;49945.16;;;-146.63;64.97
62462;BME280;48511;38.664;-9.202;2023-02-13T02:30:53;49957.00;;;-146.63;65.30
62462;BME280;48511;38.664;-9.202;2023-02-13T02:46:16;49957.00;;;-146.63;66.25
62462;BME280;48511;38.664;-9.202;2023-02-13T02:54:06;49958.97;;;-146.63;67.14
62462;BME280;48511;38.664;-9.202;2023-02-13T02:56:38;49931.34;;;-146.63;67.38
62462;BME280;48511;38.664;-9.202;2023-02-13T03:01:14;49957.00;;;-146.63;67.23
62462;BME280;48511;38.664;-9.202;2023-02-13T03:03:34;49953.06;;;-146.63;67.43
62462;BME280;48511;38.664;-9.202;2023-02-13T03:05:55;49935.28;;;-146.63;67.62
62462;BME280;48511;38.664;-9.202;2023-02-13T03:08:11;49933.31;;;-146.63;67.73
62462;BME280;48511;38.664;-9.202;2023-02-13T03:10:30;49988.59;;;-146.63;67.91
62462;BME280;48511;38.664;-9.202;2023-02-13T03:12:55;49945.16;;;-146.63;68.03
62462;BME280;48511;38.664;-9.202;2023-02-13T03:15:38;49929.38;;;-146.63;68.00
62462;BME280;48511;38.664;-9.202;2023-02-13T03:17:59;49960.94;;;-146.63;68.07
62462;BME280;48511;38.664;-9.202;2023-02-13T03:23:13;49968.84;;;-146.63;68.22
62462;BME280;48511;38.664;-9.202;2023-02-13T03:25:29;49953.06;;;-146.63;68.23
62462;BME280;48511;38.664;-9.202;2023-02-13T03:34:40;49943.19;;;-146.63;68.71
62462;BME280;48511;38.664;-9.202;2023-02-13T03:37:09;49964.91;;;-146.63;68.70
62462;BME280;48511;38.664;-9.202;2023-02-13T03:39:48;49970.81;;;-146.63;69.18
62462;BME280;48511;38.664;-9.202;2023-02-13T03:41:59;49974.75;;;-146.63;69.10
62462;BME280;48511;38.664;-9.202;2023-02-13T03:44:14;49901.75;;;-146.63;69.31
62462;BME280;48511;38.664;-9.202;2023-02-13T03:46:18;49988.59;;;-146.63;69.38
62462;BME280;48511;38.664;-9.202;2023-02-13T03:48:30;49968.84;;;-146.63;69.47
62462;BME280;48511;38.664;-9.202;2023-02-13T03:50:50;49945.16;;;-146.63;69.50
62462;BME280;48511;38.664;-9.202;2023-02-13T03:52:56;49972.78;;;-146.63;69.82
62462;BME280;48511;38.664;-9.202;2023-02-13T03:55:07;49958.97;;;-146.63;70.49
62462;BME280;48511;38.664;-9.202;2023-02-13T03:57:30;49980.69;;;-146.63;70.38
62462;BME280;48511;38.664;-9.202;2023-02-13T03:59:50;49984.63;;;-146.63;70.64
62462;BME280;48511;38.664;-9.202;2023-02-13T04:02:00;49970.81;;;-146.63;71.49
62462;BME280;48511;38.664;-9.202;2023-02-13T04:04:13;49953.06;;;-146.63;71.56
62462;BME280;48511;38.664;-9.202;2023-02-13T04:08:58;49974.75;;;-146.63;71.68
62462;BME280;48511;38.664;-9.202;2023-02-13T04:11:08;49988.59;;;-146.63;71.86
62462;BME280;48511;38.664;-9.202;2023-02-13T04:13:21;49962.91;;;-146.63;72.08
62462;BME280;48511;38.664;-9.202;2023-02-13T04:15:33;49968.84;;;-146.63;72.18
62462;BME280;48511;38.664;-9.202;2023-02-13T04:17:42;49941.22;;;-146.63;72.36
62462;BME280;48511;38.664;-9.202;2023-02-13T04:19:45;49957.00;;;-146.63;72.81
62462;BME280;48511;38.664;-9.202;2023-02-13T04:21:49;49958.97;;;-146.63;73.22
62462;BME280;48511;38.664;-9.202;2023-02-13T04:23:54;49972.78;;;-146.63;73.34
62462;BME280;48511;38.664;-9.202;2023-02-13T04:25:55;49992.53;;;-146.63;73.17
62462;BME280;48511;38.664;-9.202;2023-02-13T04:27:56;49976.75;;;-146.63;73.66
62462;BME280;48511;38.664;-9.202;2023-02-13T04:29:57;49939.25;;;-146.63;73.85
62462;BME280;48511;38.664;-9.202;2023-02-13T04:31:57;49957.00;;;-146.63;73.64
62462;BME280;48511;38.664;-9.202;2023-02-13T04:33:58;49980.69;;;-146.63;73.78
62462;BME280;48511;38.664;-9.202;2023-02-13T04:35:59;49980.69;;;-146.63;73.78
62462;BME280;48511;38.664;-9.202;2023-02-13T04:38:00;49943.19;;;-146.63;74.43
62462;BME280;48511;38.664;-9.202;2023-02-13T04:40:01;49976.75;;;-146.63;74.27
62462;BME280;48511;38.664;-9.202;2023-02-13T04:42:02;49953.06;;;-146.63;74.39
62462;BME280;48511;38.664;-9.202;2023-02-13T04:44:03;49980.69;;;-146.63;74.57
62462;BME280;48511;38.664;-9.202;2023-02-13T04:46:04;49968.84;;;-146.63;74.61
62462;BME280;48511;38.664;-9.202;2023-02-13T04:48:05;49951.09;;;-146.63;74.63
62462;BME280;48511;38.664;-9.202;2023-02-13T04:50:06;49984.63;;;-146.63;74.88
62462;BME280;48511;38.664;-9.202;2023-02-13T04:52:07;49972.78;;;-146.63;75.12
62462;BME280;48511;38.664;-9.202;2023-02-13T04:54:09;49968.84;;;-146.63;74.89
62462;BME280;48511;38.664;-9.202;2023-02-13T04:56:11;49976.75;;;-146.63;74.92
62462;BME280;48511;38.664;-9.202;2023-02-13T04:58:12;49972.78;;;-146.63;74.91
62462;BME280;48511;38.664;-9.202;2023-02-13T05:00:13;49962.91;;;-146.63;75.12
62462;BME280;48511;38.664;-9.202;2023-02-13T05:02:14;49976.75;;;-146.63;75.42
62462;BME280;48511;38.664;-9.202;2023-02-13T05:04:15;49990.56;;;-146.63;75.18
62462;BME280;48511;38.664;-9.202;2023-02-13T05:06:16;49953.06;;;-146.63;75.15
62462;BME280;48511;38.664;-9.202;2023-02-13T05:08:17;49996.47;;;-146.63;75.01
62462;BME280;48511;38.664;-9.202;2023-02-13T05:10:18;49992.53;;;-146.63;75.17
62462;BME280;48511;38.664;-9.202;2023-02-13T05:12:19;49972.78;;;-146.63;75.42
62462;BME280;48511;38.664;-9.202;2023-02-13T05:14:19;49984.63;;;-146.63;75.30
62462;BME280;48511;38.664;-9.202;2023-02-13T05:16:20;50004.38;;;-146.63;75.25
62462;BME280;48511;38.664;-9.202;2023-02-13T05:18:22;49949.09;;;-146.63;75.47
62462;BME280;48511;38.664;-9.202;2023-02-13T05:20:23;49964.91;;;-146.63;75.86
62462;BME280;48511;38.664;-9.202;2023-02-13T05:22:24;49964.91;;;-146.63;75.69
62462;BME280;48511;38.664;-9.202;2023-02-13T05:24:43;49964.91;;;-146.63;76.11
62462;BME280;48511;38.664;-9.202;2023-02-13T05:26:44;49949.09;;;-146.63;76.09
62462;BME280;48511;38.664;-9.202;2023-02-13T05:28:45;49976.75;;;-146.63;76.07
62462;BME280;48511;38.664;-9.202;2023-02-13T05:31:04;49962.91;;;-146.63;76.08
62462;BME280;48511;38.664;-9.202;2023-02-13T05:33:04;49947.13;;;-146.63;76.36
62462;BME280;48511;38.664;-9.202;2023-02-13T05:35:05;49996.47;;;-146.63;76.14
62462;BME280;48511;38.664;-9.202;2023-02-13T05:37:06;49933.31;;;-146.63;76.45
62462;BME280;48511;38.664;-9.202;2023-02-13T05:39:07;49964.91;;;-146.63;76.36
62462;BME280;48511;38.664;-9.202;2023-02-13T05:41:08;49990.56;;;-146.63;76.22
62462;BME280;48511;38.664;-9.202;2023-02-13T05:43:09;49980.69;;;-146.63;76.26
62462;BME280;48511;38.664;-9.202;2023-02-13T05:45:10;49972.78;;;-146.63;76.03
62462;BME280;48511;38.664;-9.202;2023-02-13T05:47:10;49953.06;;;-146.63;76.09
62462;BME280;48511;38.664;-9.202;2023-02-13T05:49:13;49949.09;;;-146.63;76.50
62462;BME280;48511;38.664;-9.202;2023-02-13T05:51:14;50002.41;;;-146.63;76.21
62462;BME280;48511;38.664;-9.202;2023-02-13T05:53:14;49964.91;;;-146.63;76.47
62462;BME280;48511;38.664;-9.202;2023-02-13T05:55:15;49978.72;;;-146.63;76.50
62462;BME280;48511;38.664;-9.202;2023-02-13T05:57:16;49929.38;;;-146.63;76.67
62462;BME280;48511;38.664;-9.202;2023-02-13T05:59:17;49953.06;;;-146.63;76.77
62462;BME280;48511;38.664;-9.202;2023-02-13T06:01:18;49986.59;;;-146.63;76.97
62462;BME280;48511;38.664;-9.202;2023-02-13T06:03:18;49976.75;;;-146.63;76.65
62462;BME280;48511;38.664;-9.202;2023-02-13T06:05:19;49978.72;;;-146.63;76.81
62462;BME280;48511;38.664;-9.202;2023-02-13T06:07:20;49972.78;;;-146.63;77.09
62462;BME280;48511;38.664;-9.202;2023-02-13T06:09:21;49964.91;;;-146.63;77.23
62462;BME280;48511;38.664;-9.202;2023-02-13T06:11:22;49988.59;;;-146.63;77.30
62462;BME280;48511;38.664;-9.202;2023-02-13T06:13:23;49955.03;;;-146.63;77.19
62462;BME280;48511;38.664;-9.202;2023-02-13T06:15:23;49960.94;;;-146.63;77.23
62462;BME280;48511;38.664;-9.202;2023-02-13T06:17:24;49945.16;;;-146.63;77.14
62462;BME280;48511;38.664;-9.202;2023-02-13T06:19:25;49941.22;;;-146.63;77.35
62462;BME280;48511;38.664;-9.202;2023-02-13T06:21:25;49968.84;;;-146.63;77.57
62462;BME280;48511;38.664;-9.202;2023-02-13T06:23:27;49976.75;;;-146.63;77.43
62462;BME280;48511;38.664;-9.202;2023-02-13T06:25:27;49966.88;;;-146.63;77.64
62462;BME280;48511;38.664;-9.202;2023-02-13T06:27:28;49972.78;;;-146.63;77.89
62462;BME280;48511;38.664;-9.202;2023-02-13T06:29:29;49937.25;;;-146.63;77.99
62462;BME280;48511;38.664;-9.202;2023-02-13T06:31:32;49935.28;;;-146.63;78.04
62462;BME280;48511;38.664;-9.202;2023-02-13T06:33:33;49976.75;;;-146.63;78.28
62462;BME280;48511;38.664;-9.202;2023-02-13T06:35:33;49968.84;;;-146.63;78.13
62462;BME280;48511;38.664;-9.202;2023-02-13T06:37:34;49970.81;;;-146.63;78.21
62462;BME280;48511;38.664;-9.202;2023-02-13T06:39:35;49980.69;;;-146.63;78.24
62462;BME280;48511;38.664;-9.202;2023-02-13T06:41:36;49996.47;;;-146.63;78.02
62462;BME280;48511;38.664;-9.202;2023-02-13T06:43:36;49992.53;;;-146.63;78.26
62462;BME280;48511;38.664;-9.202;2023-02-13T06:45:37;49968.84;;;-146.63;77.92
62462;BME280;48511;38.664;-9.202;2023-02-13T06:47:42;49945.16;;;-146.63;77.84
62462;BME280;48511;38.664;-9.202;2023-02-13T06:49:43;49957.00;;;-146.63;78.18
62462;BME280;48511;38.664;-9.202;2023-02-13T06:51:44;49964.91;;;-146.63;78.03
62462;BME280;48511;38.664;-9.202;2023-02-13T06:53:45;49984.63;;;-146.63;77.44
62462;BME280;48511;38.664;-9.202;2023-02-13T06:55:46;49996.47;;;-146.63;77.17
62462;BME280;48511;38.664;-9.202;2023-02-13T06:57:47;49962.91;;;-146.63;76.84
62462;BME280;48511;38.664;-9.202;2023-02-13T06:59:47;49933.31;;;-146.63;76.94
62462;BME280;48511;38.664;-9.202;2023-02-13T07:01:48;49970.81;;;-146.63;76.78
62462;BME280;48511;38.664;-9.202;2023-02-13T07:03:49;49947.13;;;-146.63;76.69
62462;BME280;48511;38.664;-9.202;2023-02-13T07:05:50;49988.59;;;-146.63;76.38
62462;BME280;48511;38.664;-9.202;2023-02-13T07:07:51;49968.84;;;-146.63;76.13
62462;BME280;48511;38.664;-9.202;2023-02-13T07:09:52;49949.09;;;-146.63;76.10
62462;BME280;48511;38.664;-9.202;2023-02-13T07:11:53;49960.94;;;-146.63;76.05
62462;BME280;48511;38.664;-9.202;2023-02-13T07:13:53;49992.53;;;-146.63;75.75
62462;BME280;48511;38.664;-9.202;2023-02-13T07:15:54;49943.19;;;-146.63;75.56
62462;BME280;48511;38.664;-9.202;2023-02-13T07:17:58;49949.09;;;-146.63;75.43
62462;BME280;48511;38.664;-9.202;2023-02-13T07:19:59;49966.88;;;-146.63;75.04
62462;BME280;48511;38.664;-9.202;2023-02-13T07:21:59;49972.78;;;-146.63;74.80
62462;BME280;48511;38.664;-9.202;2023-02-13T07:24:00;49998.44;;;-146.63;74.38
62462;BME280;48511;38.664;-9.202;2023-02-13T07:26:01;49998.44;;;-146.63;74.26
62462;BME280;48511;38.664;-9.202;2023-02-13T07:28:05;49984.63;;;-146.63;73.89
62462;BME280;48511;38.664;-9.202;2023-02-13T07:30:06;49972.78;;;-146.63;73.74
62462;BME280;48511;38.664;-9.202;2023-02-13T07:32:07;49980.69;;;-146.63;73.64
62462;BME280;48511;38.664;-9.202;2023-02-13T07:34:08;49984.63;;;-146.63;73.20
62462;BME280;48511;38.664;-9.202;2023-02-13T07:36:09;49970.81;;;-146.63;72.67
62462;BME280;48511;38.664;-9.202;2023-02-13T07:38:09;49996.47;;;-146.63;72.46
62462;BME280;48511;38.664;-9.202;2023-02-13T07:40:10;49990.56;;;-146.63;72.59
62462;BME280;48511;38.664;-9.202;2023-02-13T07:42:11;49953.06;;;-146.63;72.36
62462;BME280;48511;38.664;-9.202;2023-02-13T07:44:12;49937.25;;;-146.63;72.41
62462;BME280;48511;38.664;-9.202;2023-02-13T07:46:13;49982.66;;;-146.63;72.45
62462;BME280;48511;38.664;-9.202;2023-02-13T07:48:13;49976.75;;;-146.63;72.54
62462;BME280;48511;38.664;-9.202;2023-02-13T07:50:14;49992.53;;;-146.63;72.34
62462;BME280;48511;38.664;-9.202;2023-02-13T07:52:15;49933.31;;;-146.63;72.69
62462;BME280;48511;38.664;-9.202;2023-02-13T07:54:16;49953.06;;;-146.63;72.72
62462;BME280;48511;38.664;-9.202;2023-02-13T07:56:17;49964.91;;;-146.63;72.70
62462;BME280;48511;38.664;-9.202;2023-02-13T07:58:18;50000.44;;;-146.63;72.69
62462;BME280;48511;38.664;-9.202;2023-02-13T08:00:19;49976.75;;;-146.63;72.62
62462;BME280;48511;38.664;-9.202;2023-02-13T08:02:20;49984.63;;;-146.63;72.24
62462;BME280;48511;38.664;-9.202;2023-02-13T08:04:21;49986.59;;;-146.63;72.16
62462;BME280;48511;38.664;-9.202;2023-02-13T08:06:22;49953.06;;;-146.63;71.70
62462;BME280;48511;38.664;-9.202;2023-02-13T08:08:23;49980.69;;;-146.63;71.59
62462;BME280;48511;38.664;-9.202;2023-02-13T08:10:23;49972.78;;;-146.63;71.50
62462;BME280;48511;38.664;-9.202;2023-02-13T08:12:42;49984.63;;;-146.63;71.09
62462;BME280;48511;38.664;-9.202;2023-02-13T08:14:43;49976.75;;;-146.63;70.81
62462;BME280;48511;38.664;-9.202;2023-02-13T08:16:44;49976.75;;;-146.63;70.85
62462;BME280;48511;38.664;-9.202;2023-02-13T08:18:45;49972.78;;;-146.63;70.94
62462;BME280;48511;38.664;-9.202;2023-02-13T08:20:45;49945.16;;;-146.63;70.54
62462;BME280;48511;38.664;-9.202;2023-02-13T08:22:46;49964.91;;;-146.63;70.52
62462;BME280;48511;38.664;-9.202;2023-02-13T08:24:47;49943.19;;;-146.63;69.98
62462;BME280;48511;38.664;-9.202;2023-02-13T08:26:51;49945.16;;;-146.63;69.84
62462;BME280;48511;38.664;-9.202;2023-02-13T08:28:51;49972.78;;;-146.63;69.65
62462;BME280;48511;38.664;-9.202;2023-02-13T08:30:52;49960.94;;;-146.63;69.14
62462;BME280;48511;38.664;-9.202;2023-02-13T08:32:53;49984.63;;;-146.63;68.74
62462;BME280;48511;38.664;-9.202;2023-02-13T08:34:54;49978.72;;;-146.63;68.21
62462;BME280;48511;38.664;-9.202;2023-02-13T08:36:55;49945.16;;;-146.63;67.90
62462;BME280;48511;38.664;-9.202;2023-02-13T08:38:56;49937.25;;;-146.63;67.56
62462;BME280;48511;38.664;-9.202;2023-02-13T08:40:56;49968.84;;;-146.63;67.54
62462;BME280;48511;38.664;-9.202;2023-02-13T08:43:01;49945.16;;;-146.63;66.59
62462;BME280;48511;38.664;-9.202;2023-02-13T08:45:03;49970.81;;;-146.63;65.89
62462;BME280;48511;38.664;-9.202;2023-02-13T08:47:05;49984.63;;;-146.63;65.50
62462;BME280;48511;38.664;-9.202;2023-02-13T08:49:06;49953.06;;;-146.63;65.26
62462;BME280;48511;38.664;-9.202;2023-02-13T08:51:08;49964.91;;;-146.63;64.91
62462;BME280;48511;38.664;-9.202;2023-02-13T08:53:10;49984.63;;;-146.63;64.43
62462;BME280;48511;38.664;-9.202;2023-02-13T08:55:14;49974.75;;;-146.63;64.14
62462;BME280;48511;38.664;-9.202;2023-02-13T08:57:18;49976.75;;;-146.63;63.98
62462;BME280;48511;38.664;-9.202;2023-02-13T08:59:19;49988.59;;;-146.63;63.77
62462;BME280;48511;38.664;-9.202;2023-02-13T09:01:22;49972.78;;;-146.63;63.66
62462;BME280;48511;38.664;-9.202;2023-02-13T09:03:23;49949.09;;;-146.63;63.51
62462;BME280;48511;38.664;-9.202;2023-02-13T09:05:24;49968.84;;;-146.63;62.86
62462;BME280;48511;38.664;-9.202;2023-02-13T09:07:25;49925.41;;;-146.63;63.01
62462;BME280;48511;38.664;-9.202;2023-02-13T09:09:25;49968.84;;;-146.63;62.64
62462;BME280;48511;38.664;-9.202;2023-02-13T09:11:26;49947.13;;;-146.63;62.57
62462;BME280;48511;38.664;-9.202;2023-02-13T09:13:28;49976.75;;;-146.63;62.39
62462;BME280;48511;38.664;-9.202;2023-02-13T09:15:30;49992.53;;;-146.63;62.53
62462;BME280;48511;38.664;-9.202;2023-02-13T09:17:31;49994.50;;;-146.63;62.17
62462;BME280;48511;38.664;-9.202;2023-02-13T09:19:32;49976.75;;;-146.63;62.53
62462;BME280;48511;38.664;-9.202;2023-02-13T09:21:33;49960.94;;;-146.63;62.85
62462;BME280;48511;38.664;-9.202;2023-02-13T09:23:36;49972.78;;;-146.63;62.63
62462;BME280;48511;38.664;-9.202;2023-02-13T09:25:37;50004.38;;;-146.63;62.43
62462;BME280;48511;38.664;-9.202;2023-02-13T09:27:38;49953.06;;;-146.63;62.33
62462;BME280;48511;38.664;-9.202;2023-02-13T09:29:39;49976.75;;;-146.63;62.15
62462;BME280;48511;38.664;-9.202;2023-02-13T09:31:39;49988.59;;;-146.63;61.78
62462;BME280;48511;38.664;-9.202;2023-02-13T09:33:40;49957.00;;;-146.63;61.57
62462;BME280;48511;38.664;-9.202;2023-02-13T09:35:41;49960.94;;;-146.63;61.62
62462;BME280;48511;38.664;-9.202;2023-02-13T09:37:47;49943.19;;;-146.63;61.49
62462;BME280;48511;38.664;-9.202;2023-02-13T09:39:47;49998.44;;;-146.63;61.31
62462;BME280;48511;38.664;-9.202;2023-02-13T09:41:49;49962.91;;;-146.63;60.74
62462;BME280;48511;38.664;-9.202;2023-02-13T09:43:55;49958.97;;;-146.63;60.52
62462;BME280;48511;38.664;-9.202;2023-02-13T09:46:24;49953.06;;;-146.63;59.98
62462;BME280;48511;38.664;-9.202;2023-02-13T09:48:29;49986.59;;;-146.63;59.69
62462;BME280;48511;38.664;-9.202;2023-02-13T09:50:32;49970.81;;;-146.63;58.77
62462;BME280;48511;38.664;-9.202;2023-02-13T09:52:35;49957.00;;;-146.63;58.83
62462;BME280;48511;38.664;-9.202;2023-02-13T09:54:37;49968.84;;;-146.63;58.78
62462;BME280;48511;38.664;-9.202;2023-02-13T09:56:53;49972.78;;;-146.63;59.09
62462;BME280;48511;38.664;-9.202;2023-02-13T09:59:05;49957.00;;;-146.63;59.13
62462;BME280;48511;38.664;-9.202;2023-02-13T10:01:30;49957.00;;;-146.63;58.87
62462;BME280;48511;38.664;-9.202;2023-02-13T10:03:43;49972.78;;;-146.63;58.53
62462;BME280;48511;38.664;-9.202;2023-02-13T10:06:04;49976.75;;;-146.63;58.42
62462;BME280;48511;38.664;-9.202;2023-02-13T10:11:01;49974.75;;;-146.63;58.61
62462;BME280;48511;38.664;-9.202;2023-02-13T10:13:14;49972.78;;;-146.63;58.67
62462;BME280;48511;38.664;-9.202;2023-02-13T10:15:28;49968.84;;;-146.63;58.89
62462;BME280;48511;38.664;-9.202;2023-02-13T10:17:37;49949.09;;;-146.63;59.15
62462;BME280;48511;38.664;-9.202;2023-02-13T10:19:58;49984.63;;;-146.63;59.28
62462;BME280;48511;38.664;-9.202;2023-02-13T10:22:10;49978.72;;;-146.63;58.93
62462;BME280;48511;38.664;-9.202;2023-02-13T10:24:49;49962.91;;;-146.63;57.89
62462;BME280;48511;38.664;-9.202;2023-02-13T10:26:51;49990.56;;;-146.63;57.81
62462;BME280;48511;38.664;-9.202;2023-02-13T10:28:59;49941.22;;;-146.63;57.63
62462;BME280;48511;38.664;-9.202;2023-02-13T10:31:29;50008.31;;;-146.63;57.36
62462;BME280;48511;38.664;-9.202;2023-02-13T10:33:50;49976.75;;;-146.63;57.18
62462;BME280;48511;38.664;-9.202;2023-02-13T10:37:55;49933.31;;;-146.63;56.13
62462;BME280;48511;38.664;-9.202;2023-02-13T10:39:57;49974.75;;;-146.63;55.74
62462;BME280;48511;38.664;-9.202;2023-02-13T10:42:21;49964.91;;;-146.63;55.52
62462;BME280;48511;38.664;-9.202;2023-02-13T10:49:35;49966.88;;;-146.63;53.02
62462;BME280;48511;38.664;-9.202;2023-02-13T10:51:46;49984.63;;;-146.63;52.98
62462;BME280;48511;38.664;-9.202;2023-02-13T10:56:45;49941.22;;;-146.63;52.14
62462;BME280;48511;38.664;-9.202;2023-02-13T11:01:49;49966.88;;;-146.63;51.37
62462;BME280;48511;38.664;-9.202;2023-02-13T11:06:14;49994.50;;;-146.63;50.19
62462;BME280;48511;38.664;-9.202;2023-02-13T11:08:20;49964.91;;;-146.63;49.91
62462;BME280;48511;38.664;-9.202;2023-02-13T11:10:25;49966.88;;;-146.63;50.21
62462;BME280;48511;38.664;-9.202;2023-02-13T11:12:29;49953.06;;;-146.63;50.18
62462;BME280;48511;38.664;-9.202;2023-02-13T11:14:30;49941.22;;;-146.63;50.07
62462;BME280;48511;38.664;-9.202;2023-02-13T11:16:47;49966.88;;;-146.63;50.13
62462;BME280;48511;38.664;-9.202;2023-02-13T11:18:49;49945.16;;;-146.63;49.95
62462;BME280;48511;38.664;-9.202;2023-02-13T11:21:07;49968.84;;;-146.63;50.08
62462;BME280;48511;38.664;-9.202;2023-02-13T11:25:28;49935.28;;;-146.63;50.47
62462;BME280;48511;38.664;-9.202;2023-02-13T11:27:35;49949.09;;;-146.63;50.51
62462;BME280;48511;38.664;-9.202;2023-02-13T11:29:50;49957.00;;;-146.63;50.55
62462;BME280;48511;38.664;-9.202;2023-02-13T11:34:26;49984.63;;;-146.63;49.72
62462;BME280;48511;38.664;-9.202;2023-02-13T11:36:31;50004.38;;;-146.63;49.90
62462;BME280;48511;38.664;-9.202;2023-02-13T11:38:33;49960.94;;;-146.63;49.65
62462;BME280;48511;38.664;-9.202;2023-02-13T11:40:33;49941.22;;;-146.63;49.00
62462;BME280;48511;38.664;-9.202;2023-02-13T11:42:34;49925.41;;;-146.63;48.95